createdAt,value
2022-12-09T00:01:10.781Z,3.43
2022-12-09T00:03:39.222Z,3.57
2022-12-09T00:06:09.172Z,3.60
2022-12-09T00:08:38.920Z,3.80
2022-12-09T00:11:07.895Z,3.40
2022-12-09T00:13:36.197Z,3.07
2022-12-09T00:16:07.457Z,3.80
2022-12-09T00:18:35.872Z,3.60
2022-12-09T00:21:13.428Z,3.83
2022-12-09T00:23:42.918Z,3.40
2022-12-09T00:26:11.226Z,4.00
2022-12-09T00:28:39.675Z,3.90
2022-12-09T00:31:08.036Z,4.03
2022-12-09T00:33:36.673Z,4.30
2022-12-09T00:36:06.749Z,3.30
2022-12-09T00:38:34.783Z,4.00
2022-12-09T00:41:04.475Z,3.57
2022-12-09T00:43:33.056Z,3.30
2022-12-09T00:46:01.003Z,4.27
2022-12-09T00:48:29.406Z,3.50
2022-12-09T00:50:57.367Z,3.40
2022-12-09T00:53:25.455Z,4.17
2022-12-09T00:55:53.695Z,3.07
2022-12-09T00:58:23.069Z,3.67
2022-12-09T01:00:51.345Z,3.50
2022-12-09T01:03:20.191Z,3.20
2022-12-09T01:05:48.380Z,3.43
2022-12-09T01:08:16.647Z,3.30
2022-12-09T01:10:45.880Z,3.47
2022-12-09T01:13:15.476Z,3.50
2022-12-09T01:15:45.465Z,3.50
2022-12-09T01:18:15.359Z,3.43
2022-12-09T01:20:43.423Z,3.20
2022-12-09T01:23:11.499Z,4.13
2022-12-09T01:25:39.997Z,3.37
2022-12-09T01:28:07.863Z,3.70
2022-12-09T01:30:36.005Z,3.90
2022-12-09T01:33:05.544Z,3.23
2022-12-09T01:35:33.531Z,3.30
2022-12-09T01:38:02.053Z,3.37
2022-12-09T01:40:30.023Z,3.30
2022-12-09T01:42:57.912Z,3.33
2022-12-09T01:45:49.871Z,3.17
2022-12-09T01:48:21.934Z,3.60
2022-12-09T01:50:53.763Z,3.37
2022-12-09T01:53:25.642Z,3.37
2022-12-09T01:55:55.493Z,3.80
2022-12-09T01:58:24.640Z,2.93
2022-12-09T02:00:52.724Z,3.33
2022-12-09T02:03:22.326Z,4.10
2022-12-09T02:05:50.477Z,3.67
2022-12-09T02:08:20.231Z,3.87
2022-12-09T02:10:55.219Z,2.83
2022-12-09T02:13:29.333Z,3.87
2022-12-09T02:16:01.014Z,3.80
2022-12-09T02:18:37.960Z,3.23
2022-12-09T02:21:11.223Z,3.47
2022-12-09T02:23:42.493Z,3.20
2022-12-09T02:26:22.137Z,3.87
2022-12-09T02:29:17.718Z,3.03
2022-12-09T02:32:02.612Z,3.23
2022-12-09T02:34:34.728Z,3.53
2022-12-09T02:37:10.808Z,3.90
2022-12-09T02:39:44.987Z,3.40
2022-12-09T02:42:18.103Z,3.23
2022-12-09T02:44:49.473Z,3.33
2022-12-09T02:47:21.229Z,3.83
2022-12-09T02:49:55.820Z,3.80
2022-12-09T02:52:24.762Z,3.43
2022-12-09T02:54:53.553Z,3.73
2022-12-09T02:57:25.541Z,3.67
2022-12-09T02:59:53.867Z,3.47
2022-12-09T03:02:28.425Z,3.30
2022-12-09T03:05:10.300Z,3.50
2022-12-09T03:07:43.218Z,2.80
2022-12-09T03:10:17.165Z,3.20
2022-12-09T03:12:51.301Z,3.00
2022-12-09T03:15:25.836Z,3.47
2022-12-09T03:17:58.517Z,3.47
2022-12-09T03:20:31.007Z,3.23
2022-12-09T03:23:05.726Z,3.43
2022-12-09T03:25:39.744Z,3.23
2022-12-09T03:28:11.581Z,3.83
2022-12-09T03:30:42.630Z,3.77
2022-12-09T03:33:12.876Z,3.70
2022-12-09T03:35:45.767Z,3.20
2022-12-09T03:38:17.981Z,3.50
2022-12-09T03:40:47.770Z,3.67
2022-12-09T03:43:20.929Z,3.20
2022-12-09T03:45:49.614Z,3.57
2022-12-09T03:48:17.859Z,3.40
2022-12-09T03:50:53.071Z,3.20
2022-12-09T03:53:27.011Z,3.27
2022-12-09T03:56:00.621Z,3.50
2022-12-09T03:58:29.574Z,3.27
2022-12-09T04:00:57.670Z,3.10
2022-12-09T04:03:25.944Z,3.10
2022-12-09T04:05:55.330Z,2.80
2022-12-09T04:08:23.390Z,3.57
2022-12-09T04:10:51.469Z,3.63
2022-12-09T04:13:19.782Z,3.60
2022-12-09T04:15:48.245Z,3.40
2022-12-09T04:18:16.355Z,3.43
2022-12-09T04:20:44.584Z,4.10
2022-12-09T04:23:14.016Z,3.20
2022-12-09T04:25:42.274Z,3.90
2022-12-09T04:28:10.384Z,3.77
2022-12-09T04:30:38.554Z,3.43
2022-12-09T04:33:06.805Z,3.43
2022-12-09T04:35:34.877Z,3.80
2022-12-09T04:38:02.832Z,3.07
2022-12-09T04:40:32.584Z,3.10
2022-12-09T04:43:00.533Z,3.57
2022-12-09T04:45:28.632Z,3.30
2022-12-09T04:47:56.672Z,3.40
2022-12-09T04:50:24.611Z,3.37
2022-12-09T04:52:52.791Z,3.80
2022-12-09T04:55:20.671Z,3.47
2022-12-09T04:57:50.018Z,3.30
2022-12-09T05:00:19.614Z,3.57
2022-12-09T05:02:47.711Z,3.23
2022-12-09T05:05:15.948Z,3.43
2022-12-09T05:07:44.372Z,3.53
2022-12-09T05:10:13.595Z,3.40
2022-12-09T05:12:42.604Z,3.97
2022-12-09T05:15:12.672Z,5.97
2022-12-09T05:17:40.891Z,30.10
2022-12-09T05:20:10.120Z,11.60
2022-12-09T05:22:38.571Z,3.97
2022-12-09T05:25:07.354Z,4.00
2022-12-09T05:27:35.532Z,3.70
2022-12-09T05:30:03.736Z,4.10
2022-12-09T05:32:33.609Z,3.50
2022-12-09T05:35:01.993Z,3.60
2022-12-09T05:37:30.260Z,3.70
2022-12-09T05:39:58.298Z,3.97
2022-12-09T05:42:26.410Z,4.00
2022-12-09T05:44:54.810Z,3.40
2022-12-09T05:47:22.811Z,3.03
2022-12-09T05:49:52.660Z,5.40
2022-12-09T05:52:20.683Z,18.43
2022-12-09T05:54:49.184Z,9.87
2022-12-09T05:57:17.232Z,5.50
2022-12-09T05:59:45.931Z,4.93
2022-12-09T06:02:14.021Z,4.97
2022-12-09T06:04:42.151Z,4.57
2022-12-09T06:07:12.114Z,4.80
2022-12-09T06:09:40.320Z,4.03
2022-12-09T06:12:08.983Z,4.10
2022-12-09T06:14:37.103Z,4.23
2022-12-09T06:17:05.479Z,4.10
2022-12-09T06:19:33.609Z,3.97
2022-12-09T06:22:02.017Z,3.90
2022-12-09T06:24:31.476Z,3.63
2022-12-09T06:26:59.713Z,4.13
2022-12-09T06:29:27.733Z,4.03
2022-12-09T06:31:55.758Z,3.83
2022-12-09T06:34:24.605Z,4.00
2022-12-09T06:36:52.642Z,3.90
2022-12-09T06:39:21.115Z,28.43
2022-12-09T06:41:50.444Z,24.30
2022-12-09T06:44:23.462Z,6.47
2022-12-09T06:46:52.357Z,3.93
2022-12-09T06:49:20.885Z,4.83
2022-12-09T06:51:49.334Z,4.87
2022-12-09T06:54:18.073Z,4.47
2022-12-09T06:56:46.180Z,4.73
2022-12-09T06:59:16.140Z,4.60
2022-12-09T07:01:45.805Z,4.33
2022-12-09T07:04:15.736Z,4.27
2022-12-09T07:06:46.080Z,4.40
2022-12-09T07:09:16.770Z,4.57
2022-12-09T07:11:46.314Z,4.83
2022-12-09T07:14:17.008Z,4.33
2022-12-09T07:16:45.542Z,4.93
2022-12-09T07:19:19.001Z,4.40
2022-12-09T07:21:47.904Z,4.80
2022-12-09T07:24:16.686Z,5.07
2022-12-09T07:26:44.739Z,5.50
2022-12-09T07:29:13.437Z,6.37
2022-12-09T07:31:43.103Z,7.57
2022-12-09T07:34:12.731Z,7.53
2022-12-09T07:36:40.827Z,6.03
2022-12-09T07:39:16.337Z,12.77
2022-12-09T07:41:44.687Z,6.90
2022-12-09T07:44:13.451Z,5.47
2022-12-09T07:46:43.031Z,5.40
2022-12-09T07:49:12.832Z,4.67
2022-12-09T07:51:41.442Z,4.37
2022-12-09T07:54:12.369Z,5.63
2022-12-09T07:56:40.926Z,5.50
2022-12-09T07:59:09.729Z,5.10
2022-12-09T08:01:38.529Z,5.20
2022-12-09T08:04:09.213Z,5.10
2022-12-09T08:06:38.048Z,6.63
2022-12-09T08:09:08.151Z,14.07
2022-12-09T08:11:36.773Z,6.23
2022-12-09T08:14:12.257Z,5.67
2022-12-09T08:16:41.590Z,5.53
2022-12-09T08:19:12.159Z,5.30
2022-12-09T08:21:41.890Z,5.37
2022-12-09T08:24:15.266Z,5.50
2022-12-09T08:26:43.457Z,5.43
2022-12-09T08:29:14.239Z,5.63
2022-12-09T08:31:44.057Z,6.13
2022-12-09T08:34:14.554Z,6.47
2022-12-09T08:36:43.431Z,7.17
2022-12-09T08:39:13.148Z,6.90
2022-12-09T08:41:41.865Z,7.30
2022-12-09T08:44:12.154Z,6.20
2022-12-09T08:46:42.052Z,6.30
2022-12-09T08:49:11.157Z,6.27
2022-12-09T08:51:41.398Z,9.47
2022-12-09T08:54:09.873Z,11.47
2022-12-09T08:56:38.124Z,9.43
2022-12-09T08:59:06.735Z,8.10
2022-12-09T09:01:36.396Z,9.10
2022-12-09T09:04:06.651Z,8.83
2022-12-09T09:06:35.510Z,7.47
2022-12-09T09:09:05.819Z,8.30
2022-12-09T09:11:34.417Z,7.83
2022-12-09T09:14:05.667Z,7.13
2022-12-09T09:16:34.810Z,6.90
2022-12-09T09:19:05.839Z,7.37
2022-12-09T09:21:35.749Z,8.13
2022-12-09T09:24:10.284Z,7.30
2022-12-09T09:26:41.614Z,6.50
2022-12-09T09:29:11.839Z,7.27
2022-12-09T09:31:40.147Z,7.73
2022-12-09T09:34:08.528Z,7.17
2022-12-09T09:36:37.047Z,6.80
2022-12-09T09:39:07.124Z,7.53
2022-12-09T09:41:45.335Z,6.77
2022-12-09T09:44:22.520Z,7.13
2022-12-09T09:46:52.711Z,12.30
2022-12-09T09:49:29.778Z,8.10
2022-12-09T09:51:58.497Z,6.90
2022-12-09T09:54:28.075Z,6.97
2022-12-09T09:57:00.910Z,6.53
2022-12-09T09:59:50.039Z,7.63
2022-12-09T10:02:20.959Z,7.07
2022-12-09T10:05:00.200Z,7.03
2022-12-09T10:07:36.567Z,7.10
2022-12-09T10:10:17.803Z,7.00
2022-12-09T10:13:06.123Z,7.00
2022-12-09T10:15:49.656Z,6.23
2022-12-09T10:18:22.699Z,6.77
2022-12-09T10:20:51.351Z,7.73
2022-12-09T10:23:20.211Z,6.77
2022-12-09T10:25:54.051Z,7.80
2022-12-09T10:28:24.094Z,7.50
2022-12-09T10:30:53.567Z,6.97
2022-12-09T10:33:27.816Z,6.73
2022-12-09T10:35:56.284Z,7.63
2022-12-09T10:38:26.217Z,7.73
2022-12-09T10:41:02.916Z,7.60
2022-12-09T10:43:39.017Z,7.30
2022-12-09T10:46:19.524Z,7.07
2022-12-09T10:48:56.040Z,7.27
2022-12-09T10:51:26.985Z,7.50
2022-12-09T10:53:58.018Z,8.30
2022-12-09T10:56:30.696Z,8.10
2022-12-09T10:59:11.596Z,8.53
2022-12-09T11:01:51.746Z,10.80
2022-12-09T11:04:25.164Z,9.30
2022-12-09T11:06:59.362Z,11.00
2022-12-09T11:09:31.017Z,10.87
2022-12-09T11:12:01.989Z,9.70
2022-12-09T11:14:36.744Z,8.57
2022-12-09T11:17:17.835Z,8.20
2022-12-09T11:19:50.753Z,8.27
2022-12-09T11:22:36.397Z,7.53
2022-12-09T11:25:22.749Z,7.87
2022-12-09T11:27:54.712Z,7.43
2022-12-09T11:30:25.507Z,8.10
2022-12-09T11:33:01.105Z,7.97
2022-12-09T11:35:58.261Z,8.40
2022-12-09T11:38:37.802Z,8.00
2022-12-09T11:41:14.928Z,8.20
2022-12-09T11:43:47.536Z,8.80
2022-12-09T11:46:22.911Z,8.47
2022-12-09T11:48:56.435Z,9.23
2022-12-09T11:51:27.497Z,8.00
2022-12-09T11:54:03.389Z,8.43
2022-12-09T11:56:32.883Z,7.47
2022-12-09T11:59:05.444Z,7.80
2022-12-09T12:01:44.320Z,7.77
2022-12-09T12:04:15.614Z,7.67
2022-12-09T12:06:48.282Z,7.93
2022-12-09T12:09:22.681Z,8.37
2022-12-09T12:11:58.398Z,8.00
2022-12-09T12:14:30.597Z,11.17
2022-12-09T12:17:08.240Z,9.37
2022-12-09T12:19:39.056Z,7.80
2022-12-09T12:22:29.968Z,8.43
2022-12-09T12:25:20.783Z,7.93
2022-12-09T12:28:07.825Z,8.47
2022-12-09T12:30:45.853Z,8.70
2022-12-09T12:36:27.495Z,8.43
2022-12-09T12:39:11.257Z,8.43
2022-12-09T12:41:49.026Z,9.03
2022-12-09T12:44:57.299Z,10.00
2022-12-09T12:47:34.220Z,9.70
2022-12-09T12:50:21.441Z,10.90
2022-12-09T12:52:57.154Z,9.33
2022-12-09T12:55:42.297Z,8.33
2022-12-09T12:58:18.426Z,8.60
2022-12-09T13:01:04.681Z,9.37
2022-12-09T13:03:41.587Z,9.70
2022-12-09T13:06:14.452Z,8.97
2022-12-09T13:08:47.116Z,9.43
2022-12-09T13:11:20.751Z,9.47
2022-12-09T13:13:53.734Z,9.67
2022-12-09T13:16:27.441Z,10.00
2022-12-09T13:19:02.371Z,8.67
2022-12-09T13:21:30.393Z,8.97
2022-12-09T13:24:04.477Z,8.83
2022-12-09T13:26:41.378Z,9.70
2022-12-09T13:29:29.882Z,7.87
2022-12-09T13:32:04.251Z,8.23
2022-12-09T13:34:38.560Z,8.40
2022-12-09T13:37:26.738Z,8.17
2022-12-09T13:39:57.816Z,8.00
2022-12-09T13:42:56.256Z,9.27
2022-12-09T13:45:32.936Z,8.30
2022-12-09T13:48:05.283Z,9.17
2022-12-09T13:50:39.374Z,8.90
2022-12-09T13:53:25.250Z,9.47
2022-12-09T13:55:55.994Z,9.27
2022-12-09T13:58:48.007Z,9.03
2022-12-09T14:01:24.416Z,9.37
2022-12-09T14:04:13.050Z,8.50
2022-12-09T14:07:10.306Z,9.30
2022-12-09T14:09:47.208Z,8.70
2022-12-09T14:12:16.524Z,8.03
2022-12-09T14:14:53.689Z,8.20
2022-12-09T14:17:58.962Z,24.30
2022-12-09T14:20:32.914Z,11.70
2022-12-09T14:23:19.712Z,9.77
2022-12-09T14:26:11.569Z,8.33
2022-12-09T14:29:00.586Z,8.80
2022-12-09T14:31:57.794Z,9.33
2022-12-09T14:34:44.351Z,8.10
2022-12-09T14:37:45.636Z,8.90
2022-12-09T14:40:44.758Z,8.10
2022-12-09T14:43:28.877Z,9.00
2022-12-09T14:46:00.596Z,8.30
2022-12-09T14:48:33.492Z,9.23
2022-12-09T14:51:10.081Z,13.20
2022-12-09T14:53:39.377Z,12.93
2022-12-09T14:56:09.465Z,11.33
2022-12-09T14:58:38.277Z,9.83
2022-12-09T15:01:07.159Z,9.80
2022-12-09T15:03:43.011Z,10.07
2022-12-09T15:06:18.767Z,8.73
2022-12-09T15:08:46.939Z,10.40
2022-12-09T15:11:19.418Z,10.73
2022-12-09T15:13:50.206Z,11.10
2022-12-09T15:16:20.708Z,10.33
2022-12-09T15:18:49.585Z,10.93
2022-12-09T15:21:28.301Z,10.77
2022-12-09T15:23:56.752Z,26.37
2022-12-09T15:26:28.008Z,28.87
2022-12-09T15:28:57.508Z,15.13
2022-12-09T15:31:27.647Z,12.60
2022-12-09T15:33:57.326Z,11.57
2022-12-09T15:36:28.114Z,11.83
2022-12-09T15:39:00.056Z,12.87
2022-12-09T15:41:52.008Z,10.80
2022-12-09T15:44:22.420Z,11.23
2022-12-09T15:46:52.971Z,11.70
2022-12-09T15:49:24.816Z,10.57
2022-12-09T15:51:56.341Z,10.33
2022-12-09T15:54:28.226Z,12.87
2022-12-09T15:56:59.387Z,12.73
2022-12-09T15:59:31.292Z,12.23
2022-12-09T16:02:00.616Z,12.87
2022-12-09T16:04:32.808Z,12.33
2022-12-09T16:07:06.861Z,13.07
2022-12-09T16:09:34.858Z,12.30
2022-12-09T16:12:04.266Z,54.33
2022-12-09T16:14:43.473Z,37.47
2022-12-09T16:17:22.200Z,16.20
2022-12-09T16:19:50.213Z,12.53
2022-12-09T16:22:22.633Z,13.03
2022-12-09T16:27:51.032Z,13.53
2022-12-09T16:30:21.310Z,15.57
2022-12-09T16:32:51.477Z,17.23
2022-12-09T16:35:25.038Z,14.60
2022-12-09T16:38:19.293Z,12.17
2022-12-09T16:41:09.320Z,13.43
2022-12-09T16:43:54.599Z,14.23
2022-12-09T16:46:38.954Z,14.77
2022-12-09T16:49:08.182Z,14.23
2022-12-09T16:51:37.976Z,14.33
2022-12-09T16:54:19.776Z,13.53
2022-12-09T16:56:48.439Z,12.30
2022-12-09T16:59:17.702Z,12.37
2022-12-09T17:01:45.745Z,12.73
2022-12-09T17:04:16.089Z,13.57
2022-12-09T17:06:44.438Z,12.47
2022-12-09T17:09:13.528Z,11.60
2022-12-09T17:11:47.019Z,13.80
2022-12-09T17:14:18.117Z,14.47
2022-12-09T17:16:46.090Z,16.47
2022-12-09T17:19:14.073Z,16.00
2022-12-09T17:21:41.963Z,15.83
2022-12-09T17:24:12.337Z,15.53
2022-12-09T17:26:40.398Z,14.93
2022-12-09T17:29:08.368Z,13.90
2022-12-09T17:31:37.667Z,14.50
2022-12-09T17:34:05.586Z,15.17
2022-12-09T17:36:33.419Z,14.00
2022-12-09T17:39:02.257Z,13.93
2022-12-09T17:41:30.143Z,15.60
2022-12-09T17:43:58.122Z,17.30
2022-12-09T17:46:26.348Z,14.43
2022-12-09T17:48:55.793Z,14.00
2022-12-09T17:51:23.811Z,14.47
2022-12-09T17:53:51.736Z,14.17
2022-12-09T17:56:21.829Z,16.20
2022-12-09T17:58:56.405Z,14.87
2022-12-09T18:01:25.685Z,14.30
2022-12-09T18:04:02.856Z,14.53
2022-12-09T18:06:34.390Z,14.63
2022-12-09T18:09:02.928Z,13.40
2022-12-09T18:11:30.811Z,14.20
2022-12-09T18:13:59.159Z,15.07
2022-12-09T18:16:27.261Z,14.90
2022-12-09T18:18:55.415Z,14.93
2022-12-09T18:21:24.647Z,15.73
2022-12-09T18:23:52.535Z,16.10
2022-12-09T18:26:23.469Z,15.20
2022-12-09T18:28:56.296Z,15.63
2022-12-09T18:31:25.577Z,13.33
2022-12-09T18:33:54.675Z,13.93
2022-12-09T18:36:26.386Z,14.40
2022-12-09T18:38:55.033Z,16.30
2022-12-09T18:41:25.308Z,16.40
2022-12-09T18:43:56.754Z,15.47
2022-12-09T18:46:26.966Z,15.40
2022-12-09T18:48:59.053Z,14.60
2022-12-09T18:51:29.448Z,16.07
2022-12-09T18:53:58.160Z,16.63
2022-12-09T18:56:26.848Z,16.70
2022-12-09T18:59:10.993Z,16.13
2022-12-09T19:01:41.620Z,15.70
2022-12-09T19:04:13.752Z,15.90
2022-12-09T19:06:44.693Z,15.50
2022-12-09T19:09:14.358Z,16.43
2022-12-09T19:11:43.716Z,15.70
2022-12-09T19:14:12.087Z,17.13
2022-12-09T19:16:40.066Z,16.80
2022-12-09T19:19:10.509Z,16.20
2022-12-09T19:21:39.643Z,16.77
2022-12-09T19:24:12.384Z,16.23
2022-12-09T19:26:41.529Z,15.13
2022-12-09T19:29:10.429Z,14.27
2022-12-09T19:31:39.884Z,14.13
2022-12-09T19:34:13.470Z,14.60
2022-12-09T19:36:41.841Z,18.53
2022-12-09T19:39:12.348Z,16.90
2022-12-09T19:41:41.024Z,15.23
2022-12-09T19:44:10.651Z,17.07
2022-12-09T19:46:38.738Z,15.23
2022-12-09T19:49:06.801Z,16.17
2022-12-09T19:51:34.976Z,15.17
2022-12-09T19:54:03.259Z,16.50
2022-12-09T19:56:32.546Z,15.70
2022-12-09T19:59:00.926Z,15.03
2022-12-09T20:01:30.757Z,16.47
2022-12-09T20:04:13.552Z,44.67
2022-12-09T20:06:49.258Z,25.07
2022-12-09T20:09:24.190Z,19.87
2022-12-09T20:11:54.194Z,17.87
2022-12-09T20:14:22.096Z,17.67
2022-12-09T20:16:50.122Z,17.53
2022-12-09T20:19:19.676Z,17.13
2022-12-09T20:21:47.636Z,18.93
2022-12-09T20:24:15.738Z,16.53
2022-12-09T20:26:44.252Z,15.00
2022-12-09T20:29:13.923Z,15.23
2022-12-09T20:31:43.313Z,14.83
2022-12-09T20:34:14.846Z,13.70
2022-12-09T20:36:44.917Z,14.17
2022-12-09T20:39:15.263Z,14.90
2022-12-09T20:41:44.382Z,13.87
2022-12-09T20:44:15.130Z,13.43
2022-12-09T20:46:47.396Z,20.20
2022-12-09T20:49:15.292Z,25.20
2022-12-09T20:51:45.290Z,17.87
2022-12-09T20:54:13.914Z,15.73
2022-12-09T20:56:42.338Z,16.90
2022-12-09T20:59:11.579Z,18.67
2022-12-09T21:01:41.000Z,16.63
2022-12-09T21:04:09.517Z,15.63
2022-12-09T21:06:38.842Z,17.00
2022-12-09T21:09:11.495Z,16.03
2022-12-09T21:11:39.870Z,15.53
2022-12-09T21:14:08.841Z,16.63
2022-12-09T21:16:40.756Z,15.83
2022-12-09T21:19:12.628Z,15.80
2022-12-09T21:21:42.980Z,15.67
2022-12-09T21:24:13.652Z,14.80
2022-12-09T21:26:41.755Z,14.03
2022-12-09T21:29:11.622Z,15.10
2022-12-09T21:31:42.612Z,14.17
2022-12-09T21:34:13.275Z,16.00
2022-12-09T21:36:43.361Z,15.23
2022-12-09T21:39:13.399Z,14.03
2022-12-09T21:41:41.650Z,16.83
2022-12-09T21:44:14.031Z,16.90
2022-12-09T21:46:43.834Z,19.93
2022-12-09T21:49:12.753Z,16.87
2022-12-09T21:51:40.787Z,15.33
2022-12-09T21:54:08.680Z,14.80
2022-12-09T21:56:37.038Z,14.77
2022-12-09T21:59:06.359Z,15.17
2022-12-09T22:01:36.107Z,14.57
2022-12-09T22:04:07.016Z,15.13
2022-12-09T22:06:35.645Z,14.60
2022-12-09T22:09:05.156Z,14.47
2022-12-09T22:11:36.891Z,14.57
2022-12-09T22:14:05.728Z,14.50
2022-12-09T22:16:35.571Z,14.60
2022-12-09T22:19:06.020Z,14.77
2022-12-09T22:21:34.559Z,16.40
2022-12-09T22:24:04.665Z,23.23
2022-12-09T22:26:33.294Z,21.27
2022-12-09T22:29:02.224Z,16.40
2022-12-09T22:31:32.310Z,14.73
2022-12-09T22:34:02.841Z,15.47
2022-12-09T22:36:33.002Z,14.13
2022-12-09T22:39:01.215Z,14.23
2022-12-09T22:41:30.481Z,16.10
2022-12-09T22:43:58.927Z,14.87
2022-12-09T22:46:29.368Z,16.07
2022-12-09T22:48:58.945Z,15.67
2022-12-09T22:51:28.705Z,14.77
2022-12-09T22:53:58.891Z,14.23
2022-12-09T22:56:27.462Z,14.77
2022-12-09T22:58:55.976Z,15.83
2022-12-09T23:01:27.076Z,24.73
2022-12-09T23:03:56.101Z,33.90
2022-12-09T23:06:24.483Z,19.13
2022-12-09T23:08:52.453Z,15.10
2022-12-09T23:11:23.876Z,14.37
2022-12-09T23:13:52.378Z,12.73
2022-12-09T23:16:22.480Z,13.20
2022-12-09T23:18:51.310Z,13.47
2022-12-09T23:21:21.621Z,14.47
2022-12-09T23:23:52.184Z,12.83
2022-12-09T23:26:22.553Z,12.83
2022-12-09T23:28:52.520Z,13.07
2022-12-09T23:31:22.960Z,13.53
2022-12-09T23:33:52.231Z,12.77
2022-12-09T23:36:21.784Z,12.83
2022-12-09T23:38:50.014Z,13.13
2022-12-09T23:41:19.367Z,13.67
2022-12-09T23:43:50.703Z,14.10
2022-12-09T23:46:20.367Z,16.43
2022-12-09T23:48:49.838Z,15.10
2022-12-09T23:51:19.836Z,15.30
2022-12-09T23:53:50.003Z,15.13
2022-12-09T23:56:19.765Z,15.13
2022-12-09T23:58:53.756Z,15.50
